createdAt,value
2023-03-29T00:01:43.464Z,1.02
2023-03-29T00:04:13.430Z,1.10
2023-03-29T00:06:41.965Z,1.35
2023-03-29T00:09:10.187Z,1.60
2023-03-29T00:11:37.330Z,1.83
2023-03-29T00:14:04.468Z,1.10
2023-03-29T00:16:31.588Z,1.33
2023-03-29T00:18:59.073Z,1.48
2023-03-29T00:21:26.292Z,1.50
2023-03-29T00:23:53.380Z,1.70
2023-03-29T00:26:20.734Z,1.45
2023-03-29T00:28:48.208Z,1.58
2023-03-29T00:31:20.184Z,1.65
2023-03-29T00:33:47.497Z,1.80
2023-03-29T00:36:16.075Z,1.42
2023-03-29T00:38:43.247Z,1.25
2023-03-29T00:41:10.628Z,1.50
2023-03-29T00:43:54.126Z,1.60
2023-03-29T00:46:21.321Z,1.48
2023-03-29T00:48:48.519Z,1.77
2023-03-29T00:51:16.602Z,1.08
2023-03-29T00:53:48.532Z,1.20
2023-03-29T00:56:24.257Z,1.83
2023-03-29T00:58:59.195Z,1.35
2023-03-29T01:01:34.215Z,1.50
2023-03-29T01:04:04.377Z,1.20
2023-03-29T01:06:34.373Z,1.23
2023-03-29T01:09:03.438Z,1.73
2023-03-29T01:11:44.909Z,0.85
2023-03-29T01:16:39.416Z,1.42
2023-03-29T01:19:08.349Z,1.00
2023-03-29T01:21:44.170Z,1.25
2023-03-29T01:24:22.139Z,1.00
2023-03-29T01:27:09.492Z,1.20
2023-03-29T01:29:47.154Z,1.00
2023-03-29T01:32:17.136Z,1.27
2023-03-29T01:34:53.845Z,2.00
2023-03-29T01:37:24.615Z,1.40
2023-03-29T01:39:52.504Z,1.35
2023-03-29T01:42:22.377Z,1.60
2023-03-29T01:44:55.552Z,1.13
2023-03-29T01:47:35.723Z,1.20
2023-03-29T01:50:18.303Z,1.10
2023-03-29T01:52:58.057Z,1.23
2023-03-29T01:55:27.953Z,1.15
2023-03-29T01:57:57.017Z,1.40
2023-03-29T02:00:25.890Z,1.73
2023-03-29T02:02:54.813Z,1.52
2023-03-29T02:05:22.964Z,1.20
2023-03-29T02:07:51.434Z,1.55
2023-03-29T02:10:19.541Z,1.70
2023-03-29T02:12:46.820Z,1.73
2023-03-29T02:15:15.880Z,1.92
2023-03-29T02:17:44.315Z,1.60
2023-03-29T02:20:22.433Z,2.05
2023-03-29T02:23:04.796Z,1.50
2023-03-29T02:25:32.701Z,1.90
2023-03-29T02:28:00.305Z,1.33
2023-03-29T02:30:33.440Z,1.40
2023-03-29T02:33:26.585Z,1.42
2023-03-29T02:35:56.992Z,1.75
2023-03-29T02:38:25.642Z,1.70
2023-03-29T02:40:53.100Z,1.15
2023-03-29T02:43:21.276Z,1.50
2023-03-29T02:45:49.922Z,1.60
2023-03-29T02:48:18.922Z,1.30
2023-03-29T02:50:48.166Z,1.50
2023-03-29T02:53:20.026Z,1.58
2023-03-29T02:55:47.486Z,1.42
2023-03-29T02:58:15.598Z,1.70
2023-03-29T03:00:46.065Z,1.85
2023-03-29T03:03:15.544Z,1.40
2023-03-29T03:05:43.533Z,1.67
2023-03-29T03:08:10.809Z,1.90
2023-03-29T03:10:38.898Z,1.17
2023-03-29T03:13:06.061Z,1.67
2023-03-29T03:15:35.817Z,1.75
2023-03-29T03:18:03.710Z,2.03
2023-03-29T03:20:31.284Z,1.08
2023-03-29T03:22:58.527Z,1.83
2023-03-29T03:25:25.965Z,1.63
2023-03-29T03:27:53.654Z,2.10
2023-03-29T03:30:20.947Z,1.73
2023-03-29T03:32:49.816Z,1.30
2023-03-29T03:35:17.081Z,1.90
2023-03-29T03:37:44.216Z,1.70
2023-03-29T03:40:11.795Z,1.95
2023-03-29T03:42:39.562Z,1.80
2023-03-29T03:45:08.187Z,1.77
2023-03-29T03:47:38.607Z,1.90
2023-03-29T03:50:06.742Z,2.05
2023-03-29T03:52:33.879Z,1.50
2023-03-29T03:55:02.865Z,1.45
2023-03-29T03:57:29.991Z,1.63
2023-03-29T03:59:57.466Z,1.73
2023-03-29T04:02:24.649Z,2.15
2023-03-29T04:04:51.835Z,1.83
2023-03-29T04:07:18.982Z,1.40
2023-03-29T04:09:46.166Z,1.60
2023-03-29T04:12:13.393Z,2.30
2023-03-29T04:14:40.527Z,1.80
2023-03-29T04:17:07.916Z,1.65
2023-03-29T04:19:35.052Z,1.95
2023-03-29T04:22:02.142Z,2.03
2023-03-29T04:24:29.231Z,1.75
2023-03-29T04:26:56.357Z,1.85
2023-03-29T04:29:23.426Z,2.05
2023-03-29T04:31:50.653Z,1.73
2023-03-29T04:34:17.850Z,1.95
2023-03-29T04:36:45.004Z,1.52
2023-03-29T04:39:12.187Z,2.70
2023-03-29T04:41:39.338Z,2.17
2023-03-29T04:44:06.805Z,2.30
2023-03-29T04:46:34.601Z,2.47
2023-03-29T04:49:01.790Z,2.60
2023-03-29T04:51:28.923Z,2.00
2023-03-29T04:53:56.051Z,1.73
2023-03-29T04:56:23.338Z,1.80
2023-03-29T04:58:50.999Z,2.00
2023-03-29T05:01:18.173Z,2.05
2023-03-29T05:03:45.414Z,2.58
2023-03-29T05:06:12.607Z,2.00
2023-03-29T05:08:40.689Z,2.00
2023-03-29T05:11:09.010Z,2.30
2023-03-29T05:13:36.603Z,1.52
2023-03-29T05:16:04.790Z,2.00
2023-03-29T05:18:32.128Z,1.95
2023-03-29T05:21:00.193Z,2.15
2023-03-29T05:23:27.621Z,2.40
2023-03-29T05:25:54.868Z,2.70
2023-03-29T05:28:22.364Z,1.92
2023-03-29T05:30:59.228Z,1.73
2023-03-29T05:33:26.439Z,2.38
2023-03-29T05:36:26.377Z,2.10
2023-03-29T05:38:53.520Z,2.55
2023-03-29T05:41:20.742Z,2.38
2023-03-29T05:43:47.949Z,2.05
2023-03-29T05:46:15.396Z,2.28
2023-03-29T05:48:42.596Z,2.03
2023-03-29T05:51:09.980Z,2.22
2023-03-29T05:53:37.804Z,2.58
2023-03-29T05:56:05.048Z,1.92
2023-03-29T05:58:32.208Z,2.50
2023-03-29T06:01:00.502Z,2.00
2023-03-29T06:03:27.989Z,1.85
2023-03-29T06:05:59.710Z,2.25
2023-03-29T06:08:27.635Z,1.85
2023-03-29T06:11:04.517Z,2.00
2023-03-29T06:13:33.497Z,3.00
2023-03-29T06:16:00.986Z,2.30
2023-03-29T06:18:28.484Z,2.28
2023-03-29T06:20:56.127Z,2.13
2023-03-29T06:23:23.566Z,2.63
2023-03-29T06:25:55.343Z,2.90
2023-03-29T06:28:23.924Z,1.88
2023-03-29T06:30:51.103Z,2.40
2023-03-29T06:33:18.880Z,2.22
2023-03-29T06:35:47.475Z,1.48
2023-03-29T06:38:15.230Z,2.42
2023-03-29T06:40:44.558Z,2.42
2023-03-29T06:43:11.865Z,2.28
2023-03-29T06:45:39.800Z,3.05
2023-03-29T06:48:08.152Z,2.60
2023-03-29T06:50:35.605Z,2.35
2023-03-29T06:53:02.882Z,2.33
2023-03-29T06:55:30.145Z,1.65
2023-03-29T06:57:58.262Z,1.98
2023-03-29T07:00:29.960Z,2.63
2023-03-29T07:02:59.035Z,2.47
2023-03-29T07:05:29.280Z,3.05
2023-03-29T07:08:05.645Z,2.55
2023-03-29T07:10:33.938Z,2.08
2023-03-29T07:13:01.996Z,2.65
2023-03-29T07:15:29.453Z,2.20
2023-03-29T07:17:57.517Z,1.95
2023-03-29T07:20:25.078Z,2.72
2023-03-29T07:22:52.360Z,2.88
2023-03-29T07:25:19.822Z,2.30
2023-03-29T07:27:47.168Z,2.70
2023-03-29T07:30:16.631Z,2.90
2023-03-29T07:32:44.597Z,2.25
2023-03-29T07:35:12.985Z,4.30
2023-03-29T07:37:40.176Z,2.35
2023-03-29T07:40:18.824Z,2.63
2023-03-29T07:42:47.778Z,2.55
2023-03-29T07:45:17.025Z,2.50
2023-03-29T07:47:44.865Z,2.50
2023-03-29T07:50:12.392Z,2.22
2023-03-29T07:52:39.652Z,2.85
2023-03-29T07:55:08.119Z,2.65
2023-03-29T07:57:35.562Z,2.38
2023-03-29T08:00:13.017Z,2.50
2023-03-29T08:02:40.244Z,2.92
2023-03-29T08:05:07.649Z,2.63
2023-03-29T08:07:34.804Z,1.98
2023-03-29T08:10:02.045Z,2.60
2023-03-29T08:12:29.310Z,2.90
2023-03-29T08:14:56.425Z,2.58
2023-03-29T08:17:23.862Z,1.73
2023-03-29T08:19:52.227Z,2.60
2023-03-29T08:22:19.798Z,3.13
2023-03-29T08:24:47.060Z,2.58
2023-03-29T08:27:14.142Z,3.03
2023-03-29T08:29:41.259Z,3.47
2023-03-29T08:32:08.378Z,3.92
2023-03-29T08:34:36.208Z,3.67
2023-03-29T08:37:04.755Z,3.05
2023-03-29T08:39:32.568Z,2.20
2023-03-29T08:41:59.618Z,2.55
2023-03-29T08:44:38.730Z,3.00
2023-03-29T08:47:14.075Z,3.08
2023-03-29T08:49:42.550Z,3.28
2023-03-29T08:52:17.576Z,3.25
2023-03-29T08:54:47.024Z,3.08
2023-03-29T08:57:20.053Z,2.50
2023-03-29T08:59:50.040Z,3.45
2023-03-29T09:02:18.979Z,2.55
2023-03-29T09:04:48.226Z,3.00
2023-03-29T09:07:16.659Z,3.03
2023-03-29T09:09:43.907Z,3.13
2023-03-29T09:12:14.053Z,3.53
2023-03-29T09:14:58.428Z,2.33
2023-03-29T09:17:35.667Z,2.47
2023-03-29T09:20:06.362Z,3.25
2023-03-29T09:22:44.491Z,3.10
2023-03-29T09:25:21.447Z,2.42
2023-03-29T09:28:04.669Z,3.70
2023-03-29T09:30:35.587Z,3.42
2023-03-29T09:33:08.567Z,2.88
2023-03-29T09:35:42.282Z,3.10
2023-03-29T09:38:14.042Z,3.90
2023-03-29T09:40:49.795Z,3.83
2023-03-29T09:43:18.824Z,2.83
2023-03-29T09:45:50.918Z,3.20
2023-03-29T09:48:19.357Z,2.67
2023-03-29T09:50:47.452Z,3.22
2023-03-29T09:53:15.893Z,2.83
2023-03-29T09:55:44.026Z,3.15
2023-03-29T09:58:16.191Z,2.40
2023-03-29T10:00:43.342Z,3.25
2023-03-29T10:03:10.912Z,2.95
2023-03-29T10:05:38.614Z,2.70
2023-03-29T10:08:15.020Z,2.80
2023-03-29T10:10:43.308Z,2.28
2023-03-29T10:13:18.250Z,2.75
2023-03-29T10:15:45.453Z,2.75
2023-03-29T10:18:14.614Z,3.22
2023-03-29T10:20:41.809Z,3.00
2023-03-29T10:23:10.476Z,3.60
2023-03-29T10:25:42.469Z,2.45
2023-03-29T10:28:16.439Z,3.22
2023-03-29T10:30:43.806Z,2.92
2023-03-29T10:33:17.343Z,1.65
2023-03-29T10:35:44.853Z,2.78
2023-03-29T10:38:16.418Z,3.17
2023-03-29T10:40:45.427Z,3.10
2023-03-29T10:43:14.641Z,2.28
2023-03-29T10:45:42.417Z,2.85
2023-03-29T10:48:13.644Z,2.38
2023-03-29T10:50:41.591Z,1.52
2023-03-29T10:53:16.355Z,2.42
2023-03-29T10:56:01.452Z,2.88
2023-03-29T10:58:47.873Z,3.15
2023-03-29T11:01:38.377Z,1.88
2023-03-29T11:04:24.476Z,2.95
2023-03-29T11:07:10.807Z,2.35
2023-03-29T11:09:37.942Z,3.70
2023-03-29T11:12:16.137Z,3.10
2023-03-29T11:15:08.907Z,3.50
2023-03-29T11:17:42.119Z,2.67
2023-03-29T11:20:18.333Z,2.95
2023-03-29T11:22:49.959Z,3.78
2023-03-29T11:25:20.110Z,2.90
2023-03-29T11:27:55.035Z,2.85
2023-03-29T11:30:43.766Z,3.38
2023-03-29T11:33:16.772Z,3.15
2023-03-29T11:35:43.877Z,2.65
2023-03-29T11:38:20.194Z,1.65
2023-03-29T11:40:57.086Z,2.67
2023-03-29T11:43:30.519Z,3.17
2023-03-29T11:46:00.947Z,2.90
2023-03-29T11:48:31.233Z,2.60
2023-03-29T11:51:10.723Z,3.33
2023-03-29T11:53:52.002Z,2.97
2023-03-29T11:56:23.804Z,3.95
2023-03-29T11:58:55.497Z,3.65
2023-03-29T12:01:32.199Z,4.75
2023-03-29T12:04:22.775Z,3.55
2023-03-29T12:06:57.051Z,3.58
2023-03-29T12:09:34.151Z,2.88
2023-03-29T12:12:09.492Z,3.88
2023-03-29T12:14:48.075Z,4.20
2023-03-29T12:17:20.555Z,3.50
2023-03-29T12:19:51.990Z,2.72
2023-03-29T12:24:46.969Z,2.78
2023-03-29T12:27:20.813Z,2.85
2023-03-29T12:30:09.772Z,3.85
2023-03-29T12:32:46.342Z,3.20
2023-03-29T12:35:25.865Z,2.60
2023-03-29T12:37:56.136Z,3.50
2023-03-29T12:40:26.226Z,3.13
2023-03-29T12:42:54.353Z,2.80
2023-03-29T12:45:33.240Z,2.00
2023-03-29T12:48:01.176Z,3.53
2023-03-29T12:50:42.200Z,2.95
2023-03-29T12:53:15.449Z,3.45
2023-03-29T12:55:42.509Z,2.78
2023-03-29T12:58:48.385Z,2.78
2023-03-29T13:01:27.753Z,2.40
2023-03-29T13:03:57.915Z,3.40
2023-03-29T13:06:28.008Z,3.67
2023-03-29T13:09:20.977Z,2.50
2023-03-29T13:11:55.343Z,2.80
2023-03-29T13:14:25.111Z,3.00
2023-03-29T13:16:52.249Z,2.85
2023-03-29T13:19:28.048Z,2.30
2023-03-29T13:22:21.355Z,2.97
2023-03-29T13:25:02.222Z,3.03
2023-03-29T13:27:37.270Z,2.83
2023-03-29T13:30:23.090Z,3.13
2023-03-29T13:33:02.712Z,2.78
2023-03-29T13:35:29.871Z,1.70
2023-03-29T13:38:09.748Z,2.17
2023-03-29T13:40:44.397Z,1.92
2023-03-29T13:43:19.844Z,3.15
2023-03-29T13:45:52.561Z,3.20
2023-03-29T13:48:30.197Z,2.15
2023-03-29T13:51:03.284Z,2.97
2023-03-29T13:53:33.728Z,2.72
2023-03-29T13:56:01.684Z,2.80
2023-03-29T13:58:46.722Z,2.17
2023-03-29T14:01:20.059Z,1.85
2023-03-29T14:03:48.699Z,1.90
2023-03-29T14:06:24.595Z,2.38
2023-03-29T14:08:52.572Z,2.95
2023-03-29T14:11:23.883Z,2.85
2023-03-29T14:16:18.380Z,1.92
2023-03-29T14:18:47.771Z,2.40
2023-03-29T14:21:15.633Z,2.58
2023-03-29T14:23:44.551Z,2.20
2023-03-29T14:26:16.798Z,2.58
2023-03-29T14:28:48.468Z,2.00
2023-03-29T14:31:23.007Z,2.65
2023-03-29T14:33:54.020Z,2.90
2023-03-29T14:36:21.852Z,2.80
2023-03-29T14:38:50.899Z,2.90
2023-03-29T14:41:18.294Z,2.65
2023-03-29T14:43:45.794Z,2.70
2023-03-29T14:46:14.272Z,2.60
2023-03-29T14:48:41.766Z,2.25
2023-03-29T14:51:09.655Z,2.55
2023-03-29T14:53:38.848Z,3.13
2023-03-29T14:56:07.017Z,2.30
2023-03-29T14:58:35.614Z,3.00
2023-03-29T15:01:07.934Z,2.03
2023-03-29T15:03:45.943Z,2.60
2023-03-29T15:06:13.732Z,2.80
2023-03-29T15:08:45.825Z,3.20
2023-03-29T15:11:23.301Z,2.90
2023-03-29T15:13:52.299Z,3.42
2023-03-29T15:16:23.097Z,2.22
2023-03-29T15:18:52.299Z,3.40
2023-03-29T15:21:21.779Z,3.00
2023-03-29T15:23:52.288Z,3.72
2023-03-29T15:26:24.791Z,2.88
2023-03-29T15:29:00.382Z,3.30
2023-03-29T15:31:33.169Z,2.85
2023-03-29T15:34:12.440Z,3.83
2023-03-29T15:36:42.299Z,3.33
2023-03-29T15:39:12.436Z,2.55
2023-03-29T15:41:39.878Z,3.65
2023-03-29T15:44:07.258Z,4.05
2023-03-29T15:46:34.395Z,3.72
2023-03-29T15:49:01.579Z,4.05
2023-03-29T15:51:28.855Z,3.38
2023-03-29T15:53:55.944Z,2.47
2023-03-29T15:56:23.207Z,3.20
2023-03-29T15:58:50.994Z,3.10
2023-03-29T16:01:35.701Z,3.03
2023-03-29T16:04:14.172Z,3.90
2023-03-29T16:06:41.613Z,3.03
2023-03-29T16:09:11.771Z,3.17
2023-03-29T16:11:40.900Z,2.95
2023-03-29T16:14:15.523Z,3.28
2023-03-29T16:16:42.751Z,3.10
2023-03-29T16:19:09.914Z,3.75
2023-03-29T16:21:37.444Z,3.00
2023-03-29T16:24:05.027Z,2.97
2023-03-29T16:26:32.576Z,3.13
2023-03-29T16:28:59.782Z,2.63
2023-03-29T16:31:27.296Z,3.10
2023-03-29T16:33:54.379Z,3.13
2023-03-29T16:36:21.516Z,2.85
2023-03-29T16:38:48.681Z,3.05
2023-03-29T16:41:16.750Z,3.58
2023-03-29T16:43:44.432Z,3.05
2023-03-29T16:46:12.178Z,3.28
2023-03-29T16:48:39.387Z,3.97
2023-03-29T16:51:07.064Z,3.55
2023-03-29T16:53:34.667Z,3.17
2023-03-29T16:56:02.653Z,2.85
2023-03-29T16:58:29.989Z,2.70
2023-03-29T17:00:57.195Z,2.50
2023-03-29T17:03:24.882Z,2.65
2023-03-29T17:05:52.952Z,2.78
2023-03-29T17:08:21.207Z,2.67
2023-03-29T17:10:52.700Z,2.67
2023-03-29T17:13:21.184Z,3.22
2023-03-29T17:15:52.213Z,3.42
2023-03-29T17:18:23.154Z,3.22
2023-03-29T17:20:51.540Z,4.22
2023-03-29T17:23:19.422Z,3.33
2023-03-29T17:25:46.531Z,3.25
2023-03-29T17:28:13.796Z,2.15
2023-03-29T17:30:41.210Z,3.00
2023-03-29T17:33:08.470Z,3.10
2023-03-29T17:35:35.707Z,3.42
2023-03-29T17:38:02.901Z,2.63
2023-03-29T17:40:30.095Z,2.75
2023-03-29T17:42:57.166Z,3.05
2023-03-29T17:45:24.347Z,3.22
2023-03-29T17:47:51.539Z,3.50
2023-03-29T17:50:18.762Z,3.08
2023-03-29T17:52:46.002Z,2.83
2023-03-29T17:55:16.297Z,3.30
2023-03-29T17:57:43.910Z,3.22
2023-03-29T18:00:13.061Z,3.13
2023-03-29T18:02:41.082Z,3.10
2023-03-29T18:05:09.439Z,3.33
2023-03-29T18:07:37.162Z,2.67
2023-03-29T18:10:04.539Z,2.53
2023-03-29T18:12:31.680Z,2.75
2023-03-29T18:14:59.434Z,2.78
2023-03-29T18:17:28.773Z,3.17
2023-03-29T18:19:56.220Z,2.88
2023-03-29T18:22:24.191Z,3.45
2023-03-29T18:24:51.494Z,2.85
2023-03-29T18:27:19.752Z,3.17
2023-03-29T18:29:47.083Z,3.15
2023-03-29T18:32:14.304Z,2.58
2023-03-29T18:34:41.540Z,3.08
2023-03-29T18:37:14.512Z,2.60
2023-03-29T18:39:42.821Z,2.97
2023-03-29T18:42:12.107Z,2.90
2023-03-29T18:44:42.946Z,2.85
2023-03-29T18:47:10.052Z,2.38
2023-03-29T18:49:37.183Z,2.72
2023-03-29T18:52:05.813Z,2.35
2023-03-29T18:54:32.939Z,2.83
2023-03-29T18:57:00.586Z,2.60
2023-03-29T18:59:27.824Z,2.72
2023-03-29T19:01:55.006Z,3.08
2023-03-29T19:04:23.439Z,2.42
2023-03-29T19:06:51.922Z,2.35
2023-03-29T19:09:19.044Z,2.63
2023-03-29T19:11:47.977Z,2.53
2023-03-29T19:14:15.473Z,2.53
2023-03-29T19:16:42.899Z,2.20
2023-03-29T19:19:10.734Z,2.17
2023-03-29T19:21:38.583Z,2.72
2023-03-29T19:24:07.746Z,1.85
2023-03-29T19:26:35.430Z,2.15
2023-03-29T19:29:02.626Z,2.75
2023-03-29T19:31:29.822Z,3.10
2023-03-29T19:33:56.921Z,2.50
2023-03-29T19:36:24.181Z,2.70
2023-03-29T19:38:51.537Z,2.60
2023-03-29T19:41:18.651Z,2.92
2023-03-29T19:43:45.839Z,2.50
2023-03-29T19:46:15.473Z,2.95
2023-03-29T19:48:43.140Z,2.28
2023-03-29T19:51:10.472Z,2.67
2023-03-29T19:53:39.021Z,2.40
2023-03-29T19:56:07.664Z,2.47
2023-03-29T19:58:34.998Z,2.72
2023-03-29T20:01:02.281Z,2.60
2023-03-29T20:03:29.721Z,2.00
2023-03-29T20:05:57.497Z,2.40
2023-03-29T20:08:24.947Z,2.33
2023-03-29T20:11:03.401Z,2.35
2023-03-29T20:13:38.264Z,2.17
2023-03-29T20:16:10.125Z,2.25
2023-03-29T20:18:40.339Z,2.42
2023-03-29T20:21:07.937Z,2.80
2023-03-29T20:23:35.280Z,2.38
2023-03-29T20:26:03.147Z,2.28
2023-03-29T20:28:30.371Z,2.30
2023-03-29T20:30:57.583Z,2.03
2023-03-29T20:33:24.700Z,2.60
2023-03-29T20:35:51.885Z,2.50
2023-03-29T20:38:19.045Z,2.13
2023-03-29T20:40:46.161Z,2.80
2023-03-29T20:43:18.206Z,3.10
2023-03-29T20:45:53.544Z,2.30
2023-03-29T20:48:23.312Z,2.50
2023-03-29T20:50:51.519Z,2.20
2023-03-29T20:53:20.255Z,2.20
2023-03-29T20:55:47.899Z,2.20
2023-03-29T20:58:16.022Z,1.70
2023-03-29T21:00:43.705Z,2.20
2023-03-29T21:03:11.346Z,2.10
2023-03-29T21:05:39.020Z,2.05
2023-03-29T21:08:06.400Z,2.20
2023-03-29T21:10:33.540Z,2.50
2023-03-29T21:13:02.648Z,2.22
2023-03-29T21:15:31.053Z,2.08
2023-03-29T21:17:58.719Z,1.80
2023-03-29T21:20:27.542Z,2.22
2023-03-29T21:22:54.688Z,1.42
2023-03-29T21:25:22.135Z,2.13
2023-03-29T21:27:49.338Z,2.20
2023-03-29T21:30:17.052Z,1.75
2023-03-29T21:32:44.222Z,1.98
2023-03-29T21:35:11.643Z,2.08
2023-03-29T21:37:39.078Z,2.15
2023-03-29T21:40:06.993Z,1.90
2023-03-29T21:42:34.721Z,2.00
2023-03-29T21:45:01.910Z,2.40
2023-03-29T21:47:29.143Z,1.85
2023-03-29T21:49:56.394Z,2.70
2023-03-29T21:52:23.540Z,2.00
2023-03-29T21:54:50.812Z,1.90
2023-03-29T21:57:18.242Z,2.42
2023-03-29T21:59:45.395Z,1.65
2023-03-29T22:02:12.573Z,2.42
2023-03-29T22:04:39.871Z,1.65
2023-03-29T22:07:08.298Z,2.42
2023-03-29T22:09:35.560Z,2.60
2023-03-29T22:12:03.019Z,2.40
2023-03-29T22:14:35.092Z,2.25
2023-03-29T22:17:02.843Z,2.53
2023-03-29T22:19:29.974Z,2.47
2023-03-29T22:22:01.719Z,2.30
2023-03-29T22:24:29.329Z,2.42
2023-03-29T22:26:56.649Z,2.05
2023-03-29T22:29:23.731Z,2.78
2023-03-29T22:31:51.182Z,2.30
2023-03-29T22:34:18.436Z,2.33
2023-03-29T22:36:45.694Z,2.70
2023-03-29T22:39:13.434Z,2.30
2023-03-29T22:41:41.154Z,2.28
2023-03-29T22:44:08.320Z,2.25
2023-03-29T22:46:35.601Z,2.70
2023-03-29T22:49:02.932Z,2.60
2023-03-29T22:51:30.043Z,2.55
2023-03-29T22:53:57.108Z,2.58
2023-03-29T22:56:24.926Z,2.78
2023-03-29T22:58:52.309Z,2.70
2023-03-29T23:01:19.475Z,2.53
2023-03-29T23:03:46.694Z,2.80
2023-03-29T23:06:13.785Z,2.70
2023-03-29T23:08:41.021Z,2.58
2023-03-29T23:11:08.320Z,2.83
2023-03-29T23:13:35.812Z,2.80
2023-03-29T23:16:03.780Z,2.88
2023-03-29T23:18:31.730Z,2.47
2023-03-29T23:21:00.240Z,2.70
2023-03-29T23:23:28.496Z,2.78
2023-03-29T23:25:56.542Z,2.42
2023-03-29T23:28:24.995Z,2.75
2023-03-29T23:30:56.086Z,3.05
2023-03-29T23:33:23.633Z,2.85
2023-03-29T23:35:51.134Z,2.28
2023-03-29T23:38:18.227Z,3.00
2023-03-29T23:40:45.461Z,3.22
2023-03-29T23:43:13.541Z,2.95
2023-03-29T23:45:40.653Z,2.83
2023-03-29T23:48:08.694Z,3.20
2023-03-29T23:50:35.830Z,2.78
2023-03-29T23:53:02.946Z,2.70
2023-03-29T23:55:30.083Z,2.75
2023-03-29T23:57:57.159Z,3.00
